createdAt,value
2017-10-08T00:00:16.379Z,99729
2017-10-08T00:02:47.719Z,99733
2017-10-08T00:05:17.633Z,99729
2017-10-08T00:07:47.561Z,99736
2017-10-08T00:10:17.624Z,99736
2017-10-08T00:12:47.521Z,99745
2017-10-08T00:15:17.864Z,99738
2017-10-08T00:17:47.833Z,99736
2017-10-08T00:20:18.059Z,99745
2017-10-08T00:22:47.975Z,99753
2017-10-08T00:25:18.382Z,99755
2017-10-08T00:27:48.319Z,99753
2017-10-08T00:30:18.547Z,99755
2017-10-08T00:32:48.444Z,99758
2017-10-08T00:35:20.088Z,99758
2017-10-08T00:37:50.022Z,99761
2017-10-08T00:40:19.895Z,99767
2017-10-08T00:42:49.816Z,99762
2017-10-08T00:45:19.682Z,99763
2017-10-08T00:47:50.044Z,99764
2017-10-08T00:50:19.957Z,99774
2017-10-08T00:52:50.179Z,99774
2017-10-08T00:55:20.094Z,99773
2017-10-08T00:57:50.240Z,99773
2017-10-08T01:00:20.126Z,99775
2017-10-08T01:02:51.765Z,99778
2017-10-08T01:05:21.670Z,99780
2017-10-08T01:07:51.554Z,99784
2017-10-08T01:10:21.422Z,99782
2017-10-08T01:12:51.298Z,99789
2017-10-08T01:15:21.579Z,99790
2017-10-08T01:17:51.451Z,99789
2017-10-08T01:20:21.651Z,99789
2017-10-08T01:22:51.518Z,99791
2017-10-08T01:25:21.657Z,99796
2017-10-08T01:27:51.518Z,99805
2017-10-08T01:30:21.670Z,99821
2017-10-08T01:32:51.525Z,99823
2017-10-08T01:35:21.500Z,99813
2017-10-08T01:37:51.367Z,99823
2017-10-08T01:40:21.524Z,99824
2017-10-08T01:42:51.396Z,99831
2017-10-08T01:45:21.574Z,99819
2017-10-08T01:47:51.481Z,99833
2017-10-08T01:50:21.398Z,99834
2017-10-08T01:52:51.283Z,99831
2017-10-08T01:55:21.531Z,99835
2017-10-08T01:57:51.401Z,99838
2017-10-08T02:00:21.663Z,99841
2017-10-08T02:02:51.674Z,99852
2017-10-08T02:05:21.906Z,99860
2017-10-08T02:07:51.790Z,99856
2017-10-08T02:10:21.670Z,99864
2017-10-08T02:12:51.513Z,99775
2017-10-08T02:15:21.399Z,99869
2017-10-08T02:17:51.641Z,99878
2017-10-08T02:20:21.548Z,99874
2017-10-08T02:22:51.701Z,99880
2017-10-08T02:25:21.569Z,99887
2017-10-08T02:27:51.480Z,99855
2017-10-08T02:30:21.361Z,99893
2017-10-08T02:32:51.532Z,99897
2017-10-08T02:35:21.402Z,99904
2017-10-08T02:37:52.427Z,99911
2017-10-08T02:40:22.306Z,99895
2017-10-08T02:42:52.197Z,99903
2017-10-08T02:45:22.115Z,99915
2017-10-08T02:47:52.004Z,99914
2017-10-08T02:50:21.946Z,99925
2017-10-08T02:52:51.839Z,99932
2017-10-08T02:55:21.772Z,99916
2017-10-08T02:57:51.756Z,99931
2017-10-08T03:00:21.678Z,99931
2017-10-08T03:02:51.556Z,99937
2017-10-08T03:05:21.446Z,99931
2017-10-08T03:07:51.695Z,99933
2017-10-08T03:10:21.568Z,99939
2017-10-08T03:12:53.465Z,99933
2017-10-08T03:15:23.340Z,99944
2017-10-08T03:17:53.259Z,99951
2017-10-08T03:20:23.135Z,99952
2017-10-08T03:22:53.021Z,99952
2017-10-08T03:25:23.202Z,99965
2017-10-08T03:27:53.070Z,99964
2017-10-08T03:30:23.359Z,99976
2017-10-08T03:32:53.255Z,99983
2017-10-08T03:35:23.592Z,99963
2017-10-08T03:37:53.495Z,100000
2017-10-08T03:40:23.821Z,99997
2017-10-08T03:42:53.726Z,100000
2017-10-08T03:45:23.954Z,100000
2017-10-08T03:47:53.825Z,100003
2017-10-08T03:50:23.713Z,100002
2017-10-08T03:52:53.621Z,100003
2017-10-08T03:55:23.585Z,100011
2017-10-08T03:57:54.823Z,100007
2017-10-08T04:00:24.714Z,99992
2017-10-08T04:02:56.429Z,100021
2017-10-08T04:05:26.317Z,100017
2017-10-08T04:07:56.216Z,100015
2017-10-08T04:10:26.171Z,100034
2017-10-08T04:12:56.088Z,100025
2017-10-08T04:15:26.275Z,100022
2017-10-08T04:17:56.175Z,100033
2017-10-08T04:20:27.258Z,100037
2017-10-08T04:22:57.143Z,100042
2017-10-08T04:25:27.025Z,100044
2017-10-08T04:27:56.904Z,100045
2017-10-08T04:30:26.786Z,100047
2017-10-08T04:32:57.025Z,100054
2017-10-08T04:35:26.926Z,100051
2017-10-08T04:37:57.103Z,100058
2017-10-08T04:40:26.973Z,100062
2017-10-08T04:42:57.143Z,100061
2017-10-08T04:45:27.022Z,100065
2017-10-08T04:47:58.312Z,100067
2017-10-08T04:50:28.209Z,100074
2017-10-08T04:52:58.263Z,100082
2017-10-08T04:55:28.255Z,99756
2017-10-08T04:57:58.174Z,100086
2017-10-08T05:00:28.205Z,100092
2017-10-08T05:02:58.089Z,100091
2017-10-08T05:05:28.385Z,100098
2017-10-08T05:07:58.283Z,100108
2017-10-08T05:10:30.048Z,100109
2017-10-08T05:12:59.953Z,100112
2017-10-08T05:15:29.868Z,100119
2017-10-08T05:17:59.852Z,100122
2017-10-08T05:20:29.779Z,100134
2017-10-08T05:22:59.960Z,100132
2017-10-08T05:25:29.856Z,100131
2017-10-08T05:27:59.771Z,100136
2017-10-08T05:30:29.646Z,100139
2017-10-08T05:32:59.490Z,100143
2017-10-08T05:35:29.634Z,100080
2017-10-08T05:37:59.528Z,100142
2017-10-08T05:40:29.422Z,100143
2017-10-08T05:42:59.315Z,100139
2017-10-08T05:45:29.562Z,100147
2017-10-08T05:47:59.455Z,100148
2017-10-08T05:50:30.907Z,100153
2017-10-08T05:53:00.814Z,100149
2017-10-08T05:55:30.708Z,100165
2017-10-08T05:58:00.592Z,100181
2017-10-08T06:00:30.477Z,100182
2017-10-08T06:03:00.451Z,100184
2017-10-08T06:05:30.346Z,100187
2017-10-08T06:08:00.598Z,100190
2017-10-08T06:10:30.499Z,100182
2017-10-08T06:13:00.763Z,100200
2017-10-08T06:15:30.634Z,100204
2017-10-08T06:18:00.927Z,100203
2017-10-08T06:20:30.866Z,100210
2017-10-08T06:23:01.119Z,100213
2017-10-08T06:25:30.994Z,100215
2017-10-08T06:28:01.179Z,100215
2017-10-08T06:30:31.098Z,100214
2017-10-08T06:33:01.374Z,100222
2017-10-08T06:35:31.258Z,100228
2017-10-08T06:38:02.308Z,100225
2017-10-08T06:40:32.234Z,100228
2017-10-08T06:43:02.131Z,100231
2017-10-08T06:45:32.045Z,100243
2017-10-08T06:48:01.961Z,100245
2017-10-08T06:50:32.198Z,100241
2017-10-08T06:53:02.099Z,100247
2017-10-08T06:55:32.344Z,100258
2017-10-08T06:58:03.116Z,100258
2017-10-08T07:00:33.302Z,100260
2017-10-08T07:03:03.203Z,100265
2017-10-08T07:05:33.386Z,100262
2017-10-08T07:08:03.292Z,100265
2017-10-08T07:10:33.574Z,100265
2017-10-08T07:13:03.458Z,100277
2017-10-08T07:15:33.850Z,100281
2017-10-08T07:18:03.823Z,100289
2017-10-08T07:20:33.977Z,100296
2017-10-08T07:23:03.962Z,100300
2017-10-08T07:25:35.603Z,100302
2017-10-08T07:28:05.502Z,100307
2017-10-08T07:30:35.757Z,100309
2017-10-08T07:33:05.643Z,100315
2017-10-08T07:35:35.886Z,100322
2017-10-08T07:38:05.747Z,100321
2017-10-08T07:40:35.712Z,100322
2017-10-08T07:43:05.650Z,100324
2017-10-08T07:45:36.344Z,100333
2017-10-08T07:48:06.785Z,100308
2017-10-08T07:50:36.683Z,100335
2017-10-08T07:53:07.978Z,100336
2017-10-08T07:55:37.898Z,100341
2017-10-08T07:58:08.269Z,100342
2017-10-08T08:00:38.253Z,100348
2017-10-08T08:03:08.509Z,100346
2017-10-08T08:05:38.387Z,100356
2017-10-08T08:08:08.742Z,100362
2017-10-08T08:10:38.739Z,100359
2017-10-08T08:13:09.144Z,100289
2017-10-08T08:15:39.062Z,100370
2017-10-08T08:18:09.323Z,100377
2017-10-08T08:20:39.238Z,100382
2017-10-08T08:23:09.695Z,100383
2017-10-08T08:25:39.611Z,100394
2017-10-08T08:28:09.771Z,100400
2017-10-08T08:30:39.668Z,100396
2017-10-08T08:33:09.641Z,100404
2017-10-08T08:35:39.803Z,100178
2017-10-08T08:38:09.684Z,100402
2017-10-08T08:40:40.043Z,100414
2017-10-08T08:43:10.001Z,100417
2017-10-08T08:45:40.321Z,100414
2017-10-08T08:48:10.208Z,100422
2017-10-08T08:50:40.433Z,100422
2017-10-08T08:53:10.323Z,100432
2017-10-08T08:55:40.603Z,100433
2017-10-08T08:58:10.582Z,100438
2017-10-08T09:00:41.003Z,100446
2017-10-08T09:03:11.598Z,100443
2017-10-08T09:05:41.995Z,100432
2017-10-08T09:08:12.833Z,100440
2017-10-08T09:10:44.815Z,100440
2017-10-08T09:13:14.954Z,100444
2017-10-08T09:15:45.372Z,100448
2017-10-08T09:18:15.447Z,100457
2017-10-08T09:20:45.959Z,100462
2017-10-08T09:23:16.013Z,100462
2017-10-08T09:25:46.458Z,100473
2017-10-08T09:28:16.331Z,100465
2017-10-08T09:30:46.548Z,100462
2017-10-08T09:33:16.430Z,100473
2017-10-08T09:35:46.591Z,100471
2017-10-08T09:38:16.646Z,100477
2017-10-08T09:40:46.954Z,100482
2017-10-08T09:43:18.688Z,100493
2017-10-08T09:45:49.010Z,100480
2017-10-08T09:48:18.928Z,100493
2017-10-08T09:50:49.285Z,100493
2017-10-08T09:53:19.270Z,100490
2017-10-08T09:55:49.590Z,100497
2017-10-08T09:58:19.487Z,100509
2017-10-08T10:00:49.814Z,100519
2017-10-08T10:03:19.880Z,100508
2017-10-08T10:05:50.237Z,100523
2017-10-08T10:08:20.239Z,100524
2017-10-08T10:10:50.818Z,100523
2017-10-08T10:13:20.787Z,100536
2017-10-08T10:15:51.057Z,100524
2017-10-08T10:18:21.094Z,100528
2017-10-08T10:20:51.425Z,100535
2017-10-08T10:23:21.301Z,100533
2017-10-08T10:25:51.552Z,100531
2017-10-08T10:28:22.186Z,100532
2017-10-08T10:30:52.406Z,100545
2017-10-08T10:33:22.321Z,100546
2017-10-08T10:35:52.733Z,100545
2017-10-08T10:38:22.631Z,100546
2017-10-08T10:40:52.862Z,100550
2017-10-08T10:43:22.764Z,100549
2017-10-08T10:45:52.715Z,100554
2017-10-08T10:48:22.640Z,100562
2017-10-08T10:50:52.583Z,100558
2017-10-08T10:53:22.941Z,100570
2017-10-08T10:55:52.905Z,100567
2017-10-08T10:58:23.281Z,100570
2017-10-08T11:00:53.239Z,100596
2017-10-08T11:03:23.749Z,100571
2017-10-08T11:05:53.754Z,100583
2017-10-08T11:08:24.183Z,100575
2017-10-08T11:10:54.093Z,100582
2017-10-08T11:13:24.374Z,100576
2017-10-08T11:15:54.279Z,100587
2017-10-08T11:18:24.642Z,100591
2017-10-08T11:20:54.510Z,100583
2017-10-08T11:23:24.923Z,100591
2017-10-08T11:25:56.233Z,100603
2017-10-08T11:28:26.639Z,100589
2017-10-08T11:30:56.627Z,100601
2017-10-08T11:33:27.103Z,100596
2017-10-08T11:35:57.893Z,100594
2017-10-08T11:38:29.776Z,100597
2017-10-08T11:40:59.719Z,100593
2017-10-08T11:43:30.038Z,100602
2017-10-08T11:46:00.020Z,100602
2017-10-08T11:48:30.270Z,100603
2017-10-08T11:51:00.509Z,100592
2017-10-08T11:53:30.995Z,100607
2017-10-08T11:56:01.094Z,100606
2017-10-08T11:58:31.449Z,100618
2017-10-08T12:01:01.391Z,100607
2017-10-08T12:03:31.890Z,100612
2017-10-08T12:06:01.797Z,100607
2017-10-08T12:08:32.024Z,100607
2017-10-08T12:11:01.914Z,100610
2017-10-08T12:13:32.248Z,100623
2017-10-08T12:16:02.793Z,100617
2017-10-08T12:18:33.716Z,100625
2017-10-08T12:21:04.676Z,100622
2017-10-08T12:23:35.445Z,100615
2017-10-08T12:26:05.700Z,100627
2017-10-08T12:28:36.133Z,100633
2017-10-08T12:31:06.038Z,100631
2017-10-08T12:33:36.359Z,100270
2017-10-08T12:36:06.602Z,100624
2017-10-08T12:38:36.924Z,100630
2017-10-08T12:41:06.855Z,100626
2017-10-08T12:43:36.791Z,100631
2017-10-08T12:46:06.666Z,100632
2017-10-08T12:48:36.713Z,100636
2017-10-08T12:51:07.088Z,100641
2017-10-08T12:53:37.058Z,100638
2017-10-08T12:56:07.434Z,100638
2017-10-08T12:58:37.362Z,100643
2017-10-08T13:01:07.559Z,100640
2017-10-08T13:03:37.450Z,100645
2017-10-08T13:06:07.695Z,100648
2017-10-08T13:08:37.780Z,100645
2017-10-08T13:11:08.119Z,100643
2017-10-08T13:13:38.037Z,100649
2017-10-08T13:16:09.196Z,100647
2017-10-08T13:18:39.094Z,100643
2017-10-08T13:21:09.458Z,100654
2017-10-08T13:23:39.331Z,100653
2017-10-08T13:26:09.606Z,100658
2017-10-08T13:28:40.424Z,100655
2017-10-08T13:31:10.963Z,100662
2017-10-08T13:33:40.878Z,100658
2017-10-08T13:36:11.181Z,100656
2017-10-08T13:38:41.270Z,100655
2017-10-08T13:41:11.580Z,100648
2017-10-08T13:43:41.508Z,100655
2017-10-08T13:46:11.809Z,100655
2017-10-08T13:48:41.739Z,100668
2017-10-08T13:51:12.215Z,100657
2017-10-08T13:53:42.136Z,100655
2017-10-08T13:56:12.414Z,100669
2017-10-08T13:58:42.312Z,100657
2017-10-08T14:01:12.669Z,100657
2017-10-08T14:03:42.584Z,100656
2017-10-08T14:06:12.815Z,100659
2017-10-08T14:08:42.731Z,100667
2017-10-08T14:11:12.660Z,100655
2017-10-08T14:13:42.571Z,100656
2017-10-08T14:16:12.596Z,100660
2017-10-08T14:18:42.474Z,100657
2017-10-08T14:21:12.453Z,100660
2017-10-08T14:23:42.760Z,100670
2017-10-08T14:26:12.644Z,100663
2017-10-08T14:28:42.921Z,100667
2017-10-08T14:31:12.894Z,100667
2017-10-08T14:33:43.179Z,100663
2017-10-08T14:36:13.134Z,100674
2017-10-08T14:38:44.397Z,100668
2017-10-08T14:41:14.471Z,100672
2017-10-08T14:43:44.874Z,100685
2017-10-08T14:46:14.906Z,100681
2017-10-08T14:48:45.227Z,100686
2017-10-08T14:51:15.167Z,100688
2017-10-08T14:53:45.395Z,100680
2017-10-08T14:56:15.281Z,100686
2017-10-08T14:58:45.699Z,100693
2017-10-08T15:01:15.665Z,100703
2017-10-08T15:03:45.950Z,100701
2017-10-08T15:06:16.217Z,100702
2017-10-08T15:08:46.472Z,100698
2017-10-08T15:11:16.407Z,100698
2017-10-08T15:13:47.058Z,100701
2017-10-08T15:16:17.030Z,100707
2017-10-08T15:18:47.275Z,100711
2017-10-08T15:21:17.273Z,100702
2017-10-08T15:23:47.642Z,100703
2017-10-08T15:26:17.574Z,100698
2017-10-08T15:28:47.814Z,100711
2017-10-08T15:31:17.728Z,100713
2017-10-08T15:33:48.117Z,100708
2017-10-08T15:36:18.048Z,100708
2017-10-08T15:38:48.417Z,100706
2017-10-08T15:41:18.594Z,100711
2017-10-08T15:43:48.911Z,100707
2017-10-08T15:46:18.886Z,100714
2017-10-08T15:48:49.204Z,100721
2017-10-08T15:51:19.119Z,100717
2017-10-08T15:53:49.550Z,100729
2017-10-08T15:56:19.616Z,100735
2017-10-08T15:58:50.032Z,100736
2017-10-08T16:01:19.974Z,100737
2017-10-08T16:03:51.903Z,100735
2017-10-08T16:06:21.925Z,100668
2017-10-08T16:08:52.174Z,100738
2017-10-08T16:11:22.190Z,100741
2017-10-08T16:13:52.467Z,100746
2017-10-08T16:16:22.469Z,100742
2017-10-08T16:18:52.764Z,100751
2017-10-08T16:21:22.790Z,100745
2017-10-08T16:23:53.038Z,100756
2017-10-08T16:26:22.951Z,100762
2017-10-08T16:28:53.386Z,100751
2017-10-08T16:31:23.424Z,100760
2017-10-08T16:33:53.671Z,100768
2017-10-08T16:36:23.651Z,100771
2017-10-08T16:38:53.905Z,100772
2017-10-08T16:41:24.105Z,100772
2017-10-08T16:43:54.403Z,100768
2017-10-08T16:46:24.353Z,100777
2017-10-08T16:48:54.703Z,100788
2017-10-08T16:51:24.590Z,100782
2017-10-08T16:53:54.890Z,100796
2017-10-08T16:56:24.832Z,100791
2017-10-08T16:58:54.760Z,100795
2017-10-08T17:01:24.681Z,100799
2017-10-08T17:03:54.589Z,100802
2017-10-08T17:06:25.027Z,100802
2017-10-08T17:08:54.943Z,100805
2017-10-08T17:11:25.259Z,100806
2017-10-08T17:13:55.227Z,100812
2017-10-08T17:16:25.427Z,100803
2017-10-08T17:18:55.326Z,100806
2017-10-08T17:21:25.673Z,100810
2017-10-08T17:23:55.610Z,100807
2017-10-08T17:26:25.908Z,100809
2017-10-08T17:28:55.840Z,100813
2017-10-08T17:31:25.752Z,100827
2017-10-08T17:33:55.654Z,100825
2017-10-08T17:36:25.611Z,100662
2017-10-08T17:38:55.795Z,100834
2017-10-08T17:41:25.802Z,100844
2017-10-08T17:43:55.763Z,100844
2017-10-08T17:46:25.702Z,100836
2017-10-08T17:48:55.907Z,100764
2017-10-08T17:51:26.197Z,100758
2017-10-08T17:53:56.150Z,100849
2017-10-08T17:56:26.470Z,100857
2017-10-08T17:58:56.501Z,100857
2017-10-08T18:01:26.835Z,100857
2017-10-08T18:03:56.840Z,100863
2017-10-08T18:06:27.166Z,100863
2017-10-08T18:08:57.175Z,100873
2017-10-08T18:11:28.457Z,100870
2017-10-08T18:13:58.360Z,100872
2017-10-08T18:16:28.670Z,100874
2017-10-08T18:18:58.570Z,100873
2017-10-08T18:21:28.793Z,100882
2017-10-08T18:23:58.687Z,100884
2017-10-08T18:26:28.614Z,100878
2017-10-08T18:28:58.636Z,100878
2017-10-08T18:31:28.608Z,100896
2017-10-08T18:33:58.918Z,100883
2017-10-08T18:36:28.867Z,100893
2017-10-08T18:38:59.103Z,100894
2017-10-08T18:41:29.098Z,100826
2017-10-08T18:43:59.670Z,100902
2017-10-08T18:46:29.743Z,100896
2017-10-08T18:49:00.212Z,100898
2017-10-08T18:51:30.196Z,100900
2017-10-08T18:54:00.634Z,100904
2017-10-08T18:56:30.554Z,100907
2017-10-08T18:59:00.747Z,100911
2017-10-08T19:01:30.647Z,100910
2017-10-08T19:04:00.914Z,100902
2017-10-08T19:06:30.912Z,100907
2017-10-08T19:09:01.333Z,100915
2017-10-08T19:11:31.346Z,100916
2017-10-08T19:14:01.626Z,100920
2017-10-08T19:16:31.575Z,100918
2017-10-08T19:19:01.981Z,100918
2017-10-08T19:21:31.895Z,100765
2017-10-08T19:24:02.203Z,100924
2017-10-08T19:26:33.315Z,100924
2017-10-08T19:29:04.531Z,100923
2017-10-08T19:31:34.467Z,100932
2017-10-08T19:34:04.878Z,100925
2017-10-08T19:36:34.839Z,100928
2017-10-08T19:39:04.804Z,100939
2017-10-08T19:41:34.807Z,100928
2017-10-08T19:44:04.765Z,100929
2017-10-08T19:46:35.062Z,100942
2017-10-08T19:49:05.898Z,100935
2017-10-08T19:51:36.377Z,100936
2017-10-08T19:54:07.454Z,100939
2017-10-08T19:56:37.685Z,100946
2017-10-08T19:59:07.599Z,100941
2017-10-08T20:01:37.926Z,100941
2017-10-08T20:04:07.891Z,100944
2017-10-08T20:06:38.268Z,100947
2017-10-08T20:09:08.290Z,100858
2017-10-08T20:11:38.556Z,100951
2017-10-08T20:14:09.248Z,100953
2017-10-08T20:16:39.499Z,100956
2017-10-08T20:19:09.420Z,100959
2017-10-08T20:21:41.991Z,100956
2017-10-08T20:24:12.015Z,100949
2017-10-08T20:26:43.408Z,100957
2017-10-08T20:29:13.477Z,100957
2017-10-08T20:31:43.703Z,100963
2017-10-08T20:34:13.677Z,100962
2017-10-08T20:36:43.905Z,100974
2017-10-08T20:39:13.754Z,100966
2017-10-08T20:41:43.717Z,100966
2017-10-08T20:44:13.635Z,100969
2017-10-08T20:46:43.553Z,100966
2017-10-08T20:49:13.823Z,100964
2017-10-08T20:51:43.738Z,100962
2017-10-08T20:54:13.703Z,100970
2017-10-08T20:56:43.625Z,100972
2017-10-08T20:59:13.624Z,100962
2017-10-08T21:01:44.061Z,100956
2017-10-08T21:04:13.998Z,100966
2017-10-08T21:06:44.294Z,100960
2017-10-08T21:09:14.248Z,100958
2017-10-08T21:11:44.606Z,100936
2017-10-08T21:14:14.577Z,100953
2017-10-08T21:16:44.843Z,100965
2017-10-08T21:19:14.842Z,100966
2017-10-08T21:21:44.766Z,100969
2017-10-08T21:24:14.679Z,100969
2017-10-08T21:26:44.604Z,100965
2017-10-08T21:29:14.722Z,100971
2017-10-08T21:31:44.682Z,100968
2017-10-08T21:34:14.902Z,100963
2017-10-08T21:36:44.788Z,100962
2017-10-08T21:39:14.698Z,100961
2017-10-08T21:41:44.694Z,100968
2017-10-08T21:44:14.655Z,100966
2017-10-08T21:46:44.566Z,100962
2017-10-08T21:49:14.419Z,100964
2017-10-08T21:51:44.582Z,100968
2017-10-08T21:54:14.643Z,100977
2017-10-08T21:56:45.142Z,100970
2017-10-08T21:59:15.063Z,100968
2017-10-08T22:01:45.366Z,100962
2017-10-08T22:04:15.298Z,100961
2017-10-08T22:06:45.702Z,100564
2017-10-08T22:09:15.623Z,100967
2017-10-08T22:11:46.596Z,100971
2017-10-08T22:14:16.479Z,100965
2017-10-08T22:16:46.770Z,100853
2017-10-08T22:19:16.690Z,100966
2017-10-08T22:21:47.449Z,100964
2017-10-08T22:24:17.335Z,100968
2017-10-08T22:26:47.682Z,100973
2017-10-08T22:29:17.616Z,100991
2017-10-08T22:31:48.042Z,100952
2017-10-08T22:34:18.001Z,100972
2017-10-08T22:36:48.267Z,100971
2017-10-08T22:39:18.158Z,100969
2017-10-08T22:41:48.404Z,100974
2017-10-08T22:44:18.358Z,100972
2017-10-08T22:46:48.675Z,100962
2017-10-08T22:49:18.589Z,100966
2017-10-08T22:51:48.955Z,100978
2017-10-08T22:54:18.827Z,100974
2017-10-08T22:56:48.740Z,100969
2017-10-08T22:59:19.020Z,100973
2017-10-08T23:01:48.981Z,100966
2017-10-08T23:04:19.274Z,100975
2017-10-08T23:06:49.140Z,100970
2017-10-08T23:09:19.501Z,100975
2017-10-08T23:11:49.399Z,100970
2017-10-08T23:14:19.839Z,100970
2017-10-08T23:16:49.815Z,100972
2017-10-08T23:19:20.149Z,100980
2017-10-08T23:21:50.045Z,100972
2017-10-08T23:24:20.275Z,100977
2017-10-08T23:26:51.036Z,100979
2017-10-08T23:29:21.279Z,100988
2017-10-08T23:31:51.187Z,100983
2017-10-08T23:34:21.579Z,100990
2017-10-08T23:36:51.449Z,100985
2017-10-08T23:39:21.692Z,100981
2017-10-08T23:41:51.573Z,100992
2017-10-08T23:44:21.858Z,100984
2017-10-08T23:46:51.743Z,100986
2017-10-08T23:49:21.645Z,100991
2017-10-08T23:51:51.866Z,100979
2017-10-08T23:54:21.754Z,100987
2017-10-08T23:56:51.683Z,100994
2017-10-08T23:59:21.958Z,100991
